createdAt,value
2023-03-04T00:03:09.487Z,100349.56
2023-03-04T00:08:10.962Z,100337.97
2023-03-04T00:13:12.586Z,100329.47
2023-03-04T00:18:14.569Z,100330.47
2023-03-04T00:23:16.423Z,100317.06
2023-03-04T00:28:17.944Z,100312.09
2023-03-04T00:33:19.521Z,100296.91
2023-03-04T00:38:20.957Z,100295.16
2023-03-04T00:43:22.768Z,100282.72
2023-03-04T00:48:24.275Z,100277.09
2023-03-04T00:53:25.712Z,100273.28
2023-03-04T00:58:27.290Z,100263.13
2023-03-04T01:03:31.413Z,100261.75
2023-03-04T01:08:32.817Z,100259.19
2023-03-04T01:13:34.323Z,100254.13
2023-03-04T01:18:35.760Z,100256.59
2023-03-04T01:23:37.201Z,100237.84
2023-03-04T01:28:38.643Z,100232.34
2023-03-04T01:33:40.158Z,100225.03
2023-03-04T01:38:41.606Z,100213.72
2023-03-04T01:43:43.145Z,100204.34
2023-03-04T01:48:44.961Z,100190.69
2023-03-04T01:53:50.158Z,100179.03
2023-03-04T01:59:13.057Z,100169.59
2023-03-04T02:04:16.703Z,100169.31
2023-03-04T02:09:19.617Z,100169.53
2023-03-04T02:14:22.637Z,100168.13
2023-03-04T02:19:45.845Z,100166.50
2023-03-04T02:24:57.094Z,100175.72
2023-03-04T02:29:58.585Z,100172.75
2023-03-04T02:35:00.032Z,100171.22
2023-03-04T02:40:01.657Z,100168.91
2023-03-04T02:45:03.156Z,100155.00
2023-03-04T02:50:05.281Z,100142.03
2023-03-04T02:55:07.168Z,100146.69
2023-03-04T03:00:09.135Z,100133.25
2023-03-04T03:05:11.662Z,100126.72
2023-03-04T03:10:13.511Z,100141.38
2023-03-04T03:15:15.789Z,100130.44
2023-03-04T03:20:17.716Z,100133.66
2023-03-04T03:25:19.247Z,100142.81
2023-03-04T03:30:20.751Z,100136.59
2023-03-04T03:35:22.475Z,100131.00
2023-03-04T03:40:23.923Z,100125.81
2023-03-04T03:45:25.401Z,100114.91
2023-03-04T03:50:28.377Z,100130.72
2023-03-04T03:55:29.798Z,100112.75
2023-03-04T04:00:31.416Z,100111.13
2023-03-04T04:05:32.977Z,100121.25
2023-03-04T04:10:34.473Z,100100.84
2023-03-04T04:15:36.846Z,100098.47
2023-03-04T04:20:38.284Z,100094.91
2023-03-04T04:25:39.721Z,100083.81
2023-03-04T04:30:41.427Z,100094.78
2023-03-04T04:35:43.267Z,100080.59
2023-03-04T04:40:44.765Z,100084.53
2023-03-04T04:45:46.224Z,100081.16
2023-03-04T04:50:47.714Z,100066.69
2023-03-04T04:55:49.156Z,100051.53
2023-03-04T05:00:50.658Z,100044.63
2023-03-04T05:05:52.093Z,100042.84
2023-03-04T05:10:53.834Z,100033.03
2023-03-04T05:15:56.749Z,100037.19
2023-03-04T05:21:01.241Z,100038.47
2023-03-04T05:26:04.607Z,100043.09
2023-03-04T05:31:06.481Z,100047.47
2023-03-04T05:36:08.397Z,100049.84
2023-03-04T05:41:10.019Z,100054.03
2023-03-04T05:46:16.313Z,100044.94
2023-03-04T05:51:18.158Z,100049.13
2023-03-04T05:56:20.433Z,100041.78
2023-03-04T06:01:21.902Z,100049.44
2023-03-04T06:06:23.398Z,100042.34
2023-03-04T06:11:24.859Z,100043.91
2023-03-04T06:16:26.405Z,100024.28
2023-03-04T06:21:27.971Z,100039.47
2023-03-04T06:26:29.460Z,100043.47
2023-03-04T06:31:30.912Z,100043.56
2023-03-04T06:36:32.377Z,100058.63
2023-03-04T06:41:34.656Z,100071.66
2023-03-04T06:46:36.496Z,100060.81
2023-03-04T06:51:38.219Z,100076.28
2023-03-04T06:56:39.644Z,100070.44
2023-03-04T07:01:41.114Z,100081.38
2023-03-04T07:06:42.523Z,100081.81
2023-03-04T07:11:44.431Z,100089.97
2023-03-04T07:16:45.880Z,100082.81
2023-03-04T07:21:47.323Z,100095.94
2023-03-04T07:26:48.745Z,100093.38
2023-03-04T07:31:52.323Z,100088.00
2023-03-04T07:36:54.937Z,100076.44
2023-03-04T07:41:56.363Z,100088.69
2023-03-04T07:46:57.833Z,100079.44
2023-03-04T07:52:03.884Z,100073.75
2023-03-04T07:57:05.383Z,100077.75
2023-03-04T08:02:07.422Z,100079.09
2023-03-04T08:07:08.894Z,100060.56
2023-03-04T08:12:10.629Z,100072.84
2023-03-04T08:17:14.716Z,100057.16
2023-03-04T08:22:17.001Z,100059.47
2023-03-04T08:27:18.663Z,100067.69
2023-03-04T08:32:20.326Z,100048.03
2023-03-04T08:37:21.831Z,100046.66
2023-03-04T08:42:24.266Z,100042.59
2023-03-04T08:47:25.720Z,100038.00
2023-03-04T08:52:30.272Z,100034.59
2023-03-04T08:57:31.702Z,100038.47
2023-03-04T09:02:33.180Z,100036.06
2023-03-04T09:07:34.716Z,100034.16
2023-03-04T09:12:36.143Z,100031.25
2023-03-04T09:17:38.350Z,100028.19
2023-03-04T09:22:41.314Z,100033.28
2023-03-04T09:27:42.758Z,100035.19
2023-03-04T09:32:44.287Z,100039.75
2023-03-04T09:37:46.732Z,100034.59
2023-03-04T09:43:03.519Z,100025.09
2023-03-04T09:48:06.937Z,100028.19
2023-03-04T09:53:21.545Z,100016.66
2023-03-04T09:58:44.608Z,100013.22
2023-03-04T10:03:52.122Z,100018.91
2023-03-04T10:09:02.666Z,100007.88
2023-03-04T10:14:16.169Z,100014.78
2023-03-04T10:19:30.520Z,100003.22
2023-03-04T10:24:32.093Z,99995.31
2023-03-04T10:29:34.132Z,99991.22
2023-03-04T10:34:35.570Z,99988.22
2023-03-04T10:39:43.132Z,99978.91
2023-03-04T10:44:53.975Z,99975.81
2023-03-04T10:50:00.686Z,99974.09
2023-03-04T10:55:15.801Z,99963.56
2023-03-04T11:00:17.155Z,99961.97
2023-03-04T11:05:20.342Z,99957.53
2023-03-04T11:10:32.586Z,99956.00
2023-03-04T11:15:51.341Z,99943.00
2023-03-04T11:20:55.216Z,99961.34
2023-03-04T11:26:02.366Z,99950.19
2023-03-04T11:31:10.567Z,99947.31
2023-03-04T11:36:47.761Z,99944.69
2023-03-04T11:42:01.545Z,99948.50
2023-03-04T11:47:47.149Z,99943.72
2023-03-04T11:53:07.081Z,99936.75
2023-03-04T11:58:34.467Z,99944.22
2023-03-04T12:03:41.723Z,99941.50
2023-03-04T12:08:56.597Z,99922.75
2023-03-04T12:14:16.364Z,99933.94
2023-03-04T12:19:41.541Z,99921.03
2023-03-04T12:25:00.918Z,99913.56
2023-03-04T12:30:29.758Z,99898.03
2023-03-04T12:35:41.488Z,99903.28
2023-03-04T12:40:58.028Z,99902.56
2023-03-04T12:46:10.929Z,99898.09
2023-03-04T12:51:40.463Z,99893.50
2023-03-04T12:56:48.749Z,99897.16
2023-03-04T13:02:14.446Z,99894.66
2023-03-04T13:07:43.143Z,99881.25
2023-03-04T13:12:59.449Z,99888.91
2023-03-04T13:18:13.087Z,99888.13
2023-03-04T13:23:14.695Z,99892.19
2023-03-04T13:28:19.498Z,99883.47
2023-03-04T13:33:20.902Z,99879.94
2023-03-04T13:38:28.454Z,99871.31
2023-03-04T13:43:49.725Z,99872.50
2023-03-04T13:48:51.179Z,99875.72
2023-03-04T13:53:58.610Z,99877.78
2023-03-04T13:59:08.954Z,99876.31
2023-03-04T14:04:18.030Z,99847.72
2023-03-04T14:09:22.979Z,99855.06
2023-03-04T14:14:28.660Z,99848.19
2023-03-04T14:19:39.503Z,99854.28
2023-03-04T14:24:40.921Z,99852.56
2023-03-04T14:29:42.500Z,99851.59
2023-03-04T14:34:43.967Z,99834.41
2023-03-04T14:39:46.624Z,99843.31
2023-03-04T14:44:50.922Z,99847.56
2023-03-04T14:49:52.846Z,99845.72
2023-03-04T14:55:13.791Z,99849.25
2023-03-04T15:00:27.855Z,99831.16
2023-03-04T15:05:31.318Z,99835.75
2023-03-04T15:10:37.393Z,99855.63
2023-03-04T15:15:39.980Z,99843.59
2023-03-04T15:20:41.673Z,99847.22
2023-03-04T15:25:43.206Z,99837.94
2023-03-04T15:30:44.794Z,99840.13
2023-03-04T15:35:53.936Z,99830.09
2023-03-04T15:40:58.230Z,99833.69
2023-03-04T15:45:59.711Z,99835.53
2023-03-04T15:51:02.114Z,99833.81
2023-03-04T15:56:05.115Z,99838.41
2023-03-04T16:01:06.650Z,99830.66
2023-03-04T16:06:14.227Z,99832.19
2023-03-04T16:11:25.259Z,99824.38
2023-03-04T16:16:26.715Z,99833.75
2023-03-04T16:21:28.253Z,99829.44
2023-03-04T16:26:30.935Z,99841.09
2023-03-04T16:31:32.434Z,99848.75
2023-03-04T16:36:35.673Z,99844.53
2023-03-04T16:41:37.226Z,99859.44
2023-03-04T16:46:38.697Z,99879.16
2023-03-04T16:51:45.797Z,99869.88
2023-03-04T16:56:47.245Z,99880.22
2023-03-04T17:01:49.276Z,99870.16
2023-03-04T17:06:50.892Z,99881.84
2023-03-04T17:11:53.113Z,99877.22
2023-03-04T17:16:54.587Z,99888.13
2023-03-04T17:21:58.060Z,99890.03
2023-03-04T17:26:59.486Z,99889.84
2023-03-04T17:32:00.996Z,99897.72
2023-03-04T17:37:02.461Z,99891.03
2023-03-04T17:42:04.569Z,99896.94
2023-03-04T17:47:06.346Z,99903.63
2023-03-04T17:52:07.942Z,99906.13
2023-03-04T17:57:10.278Z,99912.72
2023-03-04T18:02:15.725Z,99914.31
2023-03-04T18:07:17.199Z,99916.56
2023-03-04T18:12:18.672Z,99915.47
2023-03-04T18:17:20.130Z,99914.16
2023-03-04T18:22:21.624Z,99913.63
2023-03-04T18:27:23.129Z,99916.59
2023-03-04T18:32:24.887Z,99922.28
2023-03-04T18:37:26.351Z,99919.28
2023-03-04T18:42:27.776Z,99915.44
2023-03-04T18:47:29.339Z,99933.44
2023-03-04T18:52:30.768Z,99918.78
2023-03-04T18:57:32.415Z,99922.66
2023-03-04T19:02:41.420Z,99926.06
2023-03-04T19:07:42.888Z,99925.44
2023-03-04T19:12:44.969Z,99937.66
2023-03-04T19:17:46.431Z,99937.16
2023-03-04T19:22:48.012Z,99938.94
2023-03-04T19:27:51.312Z,99943.44
2023-03-04T19:32:52.801Z,99940.06
2023-03-04T19:37:54.248Z,99952.53
2023-03-04T19:42:56.785Z,99962.19
2023-03-04T19:48:00.211Z,99963.16
2023-03-04T19:53:01.667Z,99975.63
2023-03-04T19:58:03.082Z,99973.94
2023-03-04T20:03:07.619Z,99978.19
2023-03-04T20:08:09.115Z,99982.31
2023-03-04T20:13:10.598Z,99975.34
2023-03-04T20:18:12.119Z,99983.38
2023-03-04T20:23:13.710Z,99981.59
2023-03-04T20:28:15.323Z,99989.25
2023-03-04T20:33:16.838Z,99989.59
2023-03-04T20:38:18.504Z,99992.69
2023-03-04T20:43:19.955Z,99997.03
2023-03-04T20:48:21.370Z,99999.44
2023-03-04T20:53:22.792Z,100004.25
2023-03-04T20:58:24.302Z,99998.72
2023-03-04T21:03:25.724Z,99999.41
2023-03-04T21:08:27.192Z,100010.97
2023-03-04T21:13:30.629Z,100015.38
2023-03-04T21:18:32.089Z,100008.91
2023-03-04T21:23:33.568Z,99997.03
2023-03-04T21:28:35.035Z,99991.34
2023-03-04T21:33:36.880Z,99996.22
2023-03-04T21:38:39.277Z,99994.19
2023-03-04T21:43:41.313Z,99993.38
2023-03-04T21:48:43.363Z,99995.91
2023-03-04T21:53:44.874Z,99988.56
2023-03-04T21:58:46.449Z,99995.94
2023-03-04T22:03:49.919Z,99997.88
2023-03-04T22:08:52.438Z,99995.63
2023-03-04T22:13:59.342Z,99991.63
2023-03-04T22:19:01.009Z,99993.53
2023-03-04T22:24:02.437Z,99994.19
2023-03-04T22:29:05.377Z,99981.63
2023-03-04T22:34:09.654Z,99983.44
2023-03-04T22:39:13.695Z,99987.00
2023-03-04T22:44:15.300Z,99988.00
2023-03-04T22:49:17.062Z,99981.94
2023-03-04T22:54:19.076Z,99976.38
2023-03-04T22:59:20.543Z,99983.34
2023-03-04T23:04:22.700Z,99986.28
2023-03-04T23:09:24.171Z,99974.59
2023-03-04T23:14:25.648Z,99978.00
2023-03-04T23:19:27.080Z,99983.22
2023-03-04T23:24:29.369Z,99974.34
2023-03-04T23:29:30.826Z,99978.09
2023-03-04T23:34:32.268Z,99974.56
2023-03-04T23:39:33.744Z,99971.44
2023-03-04T23:44:35.457Z,99975.03
2023-03-04T23:49:37.006Z,99974.69
2023-03-04T23:54:38.456Z,99983.50
2023-03-04T23:59:40.065Z,99978.66
